DAL1155 KHPN-KATL
Flight info
| Callsign | DAL1155 |
|---|---|
| Flight time | N/A |
| Altitude | 36000 |
| Route | LANNA J48 MOL FLASK |
| Aircraft | B738/M-VGDW/C |
Departure
| Time | 2026-05-07 03:09 |
|---|---|
| Airport | Westchester County Airport (KHPN) |
Arrival
| Time | N/A |
|---|---|
| Airport | Hartsfield Jackson Atlanta International Airport (KATL) |
| Time | Latitude | Longitude | Altitude | Speed | Heading |
|---|---|---|---|---|---|
| 2026-05-07 02:58 | 41.06767 | -73.70444 | 405 ft | 0 kts | 59° |
| 2026-05-07 03:03 | 41.06760 | -73.70459 | 404 ft | 2 kts | 60° |
| 2026-05-07 03:04 | 41.06752 | -73.70476 | 404 ft | 2 kts | 60° |
| 2026-05-07 03:04 | 41.06745 | -73.70493 | 403 ft | 2 kts | 60° |
| 2026-05-07 03:04 | 41.06740 | -73.70505 | 403 ft | 0 kts | 60° |
| 2026-05-07 03:06 | 41.06740 | -73.70500 | 403 ft | 0 kts | 83° |
| 2026-05-07 03:06 | 41.06736 | -73.70491 | 403 ft | 2 kts | 137° |
| 2026-05-07 03:06 | 41.06711 | -73.70465 | 401 ft | 6 kts | 144° |
| 2026-05-07 03:06 | 41.06659 | -73.70425 | 398 ft | 10 kts | 151° |
| 2026-05-07 03:07 | 41.06585 | -73.70371 | 395 ft | 13 kts | 151° |
| 2026-05-07 03:07 | 41.06495 | -73.70303 | 392 ft | 16 kts | 150° |
| 2026-05-07 03:07 | 41.06387 | -73.70222 | 388 ft | 19 kts | 149° |
| 2026-05-07 03:07 | 41.06266 | -73.70128 | 384 ft | 21 kts | 150° |
| 2026-05-07 03:08 | 41.06138 | -73.70032 | 379 ft | 19 kts | 156° |
| 2026-05-07 03:08 | 41.06028 | -73.70101 | 376 ft | 19 kts | 246° |
| 2026-05-07 03:08 | 41.06109 | -73.70229 | 380 ft | 41 kts | 328° |
| 2026-05-07 03:08 | 41.06700 | -73.70676 | 405 ft | 148 kts | 330° |
| 2026-05-07 03:09 | 41.07760 | -73.71480 | 1077 ft | 194 kts | 330° |
| 2026-05-07 03:09 | 41.08831 | -73.72456 | 2390 ft | 203 kts | 311° |
| 2026-05-07 03:09 | 41.09341 | -73.74192 | 3403 ft | 220 kts | 271° |
| 2026-05-07 03:09 | 41.08818 | -73.76139 | 4342 ft | 243 kts | 232° |
| 2026-05-07 03:10 | 41.07543 | -73.77653 | 5279 ft | 259 kts | 222° |
| 2026-05-07 03:10 | 41.06255 | -73.79432 | 6189 ft | 275 kts | 235° |
| 2026-05-07 03:10 | 41.05233 | -73.81533 | 7331 ft | 280 kts | 242° |
| 2026-05-07 03:10 | 41.04297 | -73.83785 | 8531 ft | 284 kts | 243° |
| 2026-05-07 03:11 | 41.03370 | -73.86092 | 9690 ft | 289 kts | 244° |
| 2026-05-07 03:11 | 41.02438 | -73.88425 | 10821 ft | 293 kts | 243° |
| 2026-05-07 03:11 | 41.01470 | -73.90852 | 11636 ft | 309 kts | 244° |
| 2026-05-07 03:11 | 41.00449 | -73.93413 | 12397 ft | 325 kts | 243° |
| 2026-05-07 03:12 | 40.99366 | -73.96129 | 13135 ft | 342 kts | 243° |
| 2026-05-07 03:12 | 40.98239 | -73.98954 | 13849 ft | 358 kts | 243° |
| 2026-05-07 03:12 | 40.97073 | -74.01870 | 14868 ft | 363 kts | 243° |
| 2026-05-07 03:12 | 40.95893 | -74.04821 | 15901 ft | 367 kts | 243° |
| 2026-05-07 03:13 | 40.94714 | -74.07765 | 16925 ft | 371 kts | 243° |
| 2026-05-07 03:13 | 40.93513 | -74.10763 | 17899 ft | 375 kts | 243° |
| 2026-05-07 03:13 | 40.92295 | -74.13802 | 18869 ft | 378 kts | 243° |
| 2026-05-07 03:13 | 40.91063 | -74.16871 | 19818 ft | 382 kts | 243° |
| 2026-05-07 03:14 | 40.89820 | -74.19969 | 20737 ft | 385 kts | 243° |
| 2026-05-07 03:14 | 40.88567 | -74.23089 | 21652 ft | 387 kts | 243° |
| 2026-05-07 03:14 | 40.86040 | -74.29372 | 23293 ft | 394 kts | 243° |
| 2026-05-07 03:15 | 40.84753 | -74.32568 | 24058 ft | 398 kts | 243° |
| 2026-05-07 03:15 | 40.83443 | -74.35815 | 24794 ft | 402 kts | 242° |
| 2026-05-07 03:15 | 40.82135 | -74.39056 | 25535 ft | 405 kts | 242° |
| 2026-05-07 03:15 | 40.80797 | -74.42365 | 26220 ft | 409 kts | 242° |
| 2026-05-07 03:16 | 40.79457 | -74.45679 | 26883 ft | 413 kts | 242° |
| 2026-05-07 03:16 | 40.78115 | -74.48993 | 27546 ft | 416 kts | 242° |
| 2026-05-07 03:16 | 40.76755 | -74.52347 | 28153 ft | 420 kts | 242° |
| 2026-05-07 03:16 | 40.75375 | -74.55749 | 28793 ft | 423 kts | 242° |
| 2026-05-07 03:17 | 40.73976 | -74.59192 | 29392 ft | 426 kts | 242° |
| 2026-05-07 03:17 | 40.72590 | -74.62601 | 29951 ft | 430 kts | 242° |
| 2026-05-07 03:17 | 40.71175 | -74.66075 | 30325 ft | 437 kts | 241° |
| 2026-05-07 03:17 | 40.69717 | -74.69652 | 30742 ft | 444 kts | 240° |
| 2026-05-07 03:18 | 40.68253 | -74.73238 | 31184 ft | 449 kts | 239° |
| 2026-05-07 03:18 | 40.66777 | -74.76854 | 31666 ft | 453 kts | 239° |
| 2026-05-07 03:18 | 40.65282 | -74.80509 | 32082 ft | 458 kts | 238° |
| 2026-05-07 03:18 | 40.63767 | -74.84208 | 32551 ft | 462 kts | 238° |
| 2026-05-07 03:19 | 40.62229 | -74.87961 | 32996 ft | 466 kts | 237° |
| 2026-05-07 03:19 | 40.60689 | -74.91710 | 33411 ft | 471 kts | 237° |
| 2026-05-07 03:19 | 40.59128 | -74.95506 | 33793 ft | 475 kts | 236° |
| 2026-05-07 03:19 | 40.57561 | -74.99290 | 34288 ft | 476 kts | 234° |
| 2026-05-07 03:20 | 40.55779 | -75.02887 | 34968 ft | 467 kts | 228° |
| 2026-05-07 03:20 | 40.53817 | -75.06237 | 35550 ft | 464 kts | 225° |
| 2026-05-07 03:20 | 40.51786 | -75.09495 | 36080 ft | 462 kts | 224° |
| 2026-05-07 03:20 | 40.49704 | -75.12778 | 36330 ft | 467 kts | 224° |
| 2026-05-07 03:21 | 40.47609 | -75.16065 | 36358 ft | 474 kts | 224° |
| 2026-05-07 03:21 | 40.43426 | -75.22657 | 36363 ft | 471 kts | 224° |
| 2026-05-07 03:22 | 40.39261 | -75.29231 | 36364 ft | 470 kts | 224° |
| 2026-05-07 03:22 | 40.35075 | -75.35832 | 36363 ft | 471 kts | 224° |
| 2026-05-07 03:23 | 40.30925 | -75.42439 | 36363 ft | 470 kts | 225° |
| 2026-05-07 03:23 | 40.26778 | -75.49062 | 36362 ft | 473 kts | 225° |
| 2026-05-07 03:24 | 40.22638 | -75.55684 | 36361 ft | 470 kts | 225° |
| 2026-05-07 03:24 | 40.18499 | -75.62294 | 36362 ft | 472 kts | 225° |
| 2026-05-07 03:25 | 40.14340 | -75.68926 | 36362 ft | 474 kts | 224° |
| 2026-05-07 03:25 | 40.10161 | -75.75581 | 36361 ft | 476 kts | 224° |
| 2026-05-07 03:26 | 40.05962 | -75.82258 | 36362 ft | 477 kts | 224° |
| 2026-05-07 03:26 | 40.01770 | -75.88906 | 36361 ft | 475 kts | 224° |
| 2026-05-07 03:27 | 39.97588 | -75.95531 | 36362 ft | 470 kts | 224° |
| 2026-05-07 03:27 | 39.93471 | -76.02035 | 36363 ft | 469 kts | 224° |
| 2026-05-07 03:28 | 39.89312 | -76.08588 | 36363 ft | 468 kts | 224° |
| 2026-05-07 03:28 | 39.85159 | -76.15114 | 36362 ft | 469 kts | 224° |
| 2026-05-07 03:29 | 39.81014 | -76.21622 | 36361 ft | 469 kts | 224° |
| 2026-05-07 03:29 | 39.76852 | -76.28134 | 36361 ft | 470 kts | 224° |
| 2026-05-07 03:30 | 39.72704 | -76.34618 | 36361 ft | 469 kts | 224° |
| 2026-05-07 03:30 | 39.68541 | -76.41112 | 36362 ft | 469 kts | 224° |
| 2026-05-07 03:31 | 39.64372 | -76.47598 | 36363 ft | 469 kts | 224° |
| 2026-05-07 03:31 | 39.60177 | -76.54111 | 36364 ft | 471 kts | 224° |
| 2026-05-07 03:32 | 39.55991 | -76.60599 | 36363 ft | 470 kts | 224° |
| 2026-05-07 03:32 | 39.51818 | -76.67055 | 36363 ft | 469 kts | 224° |
| 2026-05-07 03:33 | 39.47637 | -76.73511 | 36362 ft | 469 kts | 224° |
| 2026-05-07 03:33 | 39.43462 | -76.79944 | 36362 ft | 468 kts | 224° |
| 2026-05-07 03:34 | 39.39270 | -76.86382 | 36363 ft | 471 kts | 224° |
| 2026-05-07 03:34 | 39.35087 | -76.92800 | 36363 ft | 468 kts | 224° |
| 2026-05-07 03:35 | 39.30878 | -76.99246 | 36363 ft | 468 kts | 224° |
| 2026-05-07 03:35 | 39.26701 | -77.05625 | 36363 ft | 468 kts | 224° |
| 2026-05-07 03:36 | 39.22509 | -77.12015 | 36363 ft | 469 kts | 224° |
| 2026-05-07 03:36 | 39.18290 | -77.18434 | 36363 ft | 468 kts | 224° |
| 2026-05-07 03:37 | 39.14098 | -77.24802 | 36363 ft | 469 kts | 224° |
| 2026-05-07 03:37 | 39.09892 | -77.31175 | 36362 ft | 468 kts | 224° |
| 2026-05-07 03:38 | 39.05671 | -77.37559 | 36361 ft | 467 kts | 224° |
| 2026-05-07 03:38 | 39.01468 | -77.43899 | 36361 ft | 468 kts | 224° |
| 2026-05-07 03:39 | 38.97239 | -77.50269 | 36362 ft | 469 kts | 224° |
| 2026-05-07 03:39 | 38.93004 | -77.56636 | 36361 ft | 469 kts | 224° |
| 2026-05-07 03:40 | 38.88787 | -77.62967 | 36362 ft | 468 kts | 224° |
| 2026-05-07 03:40 | 38.84572 | -77.69275 | 36362 ft | 468 kts | 223° |
| 2026-05-07 03:41 | 38.80318 | -77.75632 | 36362 ft | 469 kts | 223° |
| 2026-05-07 03:41 | 38.76100 | -77.81924 | 36363 ft | 468 kts | 223° |
| 2026-05-07 03:42 | 38.71868 | -77.88219 | 36363 ft | 469 kts | 223° |
| 2026-05-07 03:42 | 38.67607 | -77.94544 | 36363 ft | 468 kts | 223° |
| 2026-05-07 03:43 | 38.63371 | -78.00822 | 36363 ft | 468 kts | 223° |
| 2026-05-07 03:43 | 38.59142 | -78.07081 | 36364 ft | 467 kts | 223° |
| 2026-05-07 03:44 | 38.54899 | -78.13345 | 36365 ft | 469 kts | 223° |
| 2026-05-07 03:44 | 38.50635 | -78.19629 | 36365 ft | 468 kts | 223° |
| 2026-05-07 03:45 | 38.46365 | -78.25908 | 36365 ft | 467 kts | 223° |
| 2026-05-07 03:45 | 38.42126 | -78.32130 | 36366 ft | 469 kts | 223° |
| 2026-05-07 03:46 | 38.37840 | -78.38410 | 36366 ft | 468 kts | 223° |
| 2026-05-07 03:46 | 38.33584 | -78.44633 | 36366 ft | 468 kts | 223° |
| 2026-05-07 03:47 | 38.29314 | -78.50864 | 36365 ft | 468 kts | 223° |
| 2026-05-07 03:47 | 38.25066 | -78.57050 | 36365 ft | 467 kts | 223° |
| 2026-05-07 03:48 | 38.20790 | -78.63265 | 36366 ft | 468 kts | 223° |
| 2026-05-07 03:48 | 38.16527 | -78.69449 | 36367 ft | 468 kts | 222° |
| 2026-05-07 03:49 | 38.12241 | -78.75654 | 36367 ft | 467 kts | 222° |
| 2026-05-07 03:49 | 38.07963 | -78.81835 | 36367 ft | 467 kts | 222° |
| 2026-05-07 03:50 | 38.03680 | -78.88011 | 36367 ft | 467 kts | 222° |
| 2026-05-07 03:50 | 37.99396 | -78.94178 | 36368 ft | 467 kts | 222° |
| 2026-05-07 03:51 | 37.95122 | -79.00317 | 36368 ft | 467 kts | 222° |
| 2026-05-07 03:51 | 37.90807 | -79.06506 | 36368 ft | 467 kts | 222° |
| 2026-05-07 03:52 | 37.86523 | -79.12638 | 36369 ft | 466 kts | 222° |
| 2026-05-07 03:52 | 37.82227 | -79.18771 | 36371 ft | 469 kts | 222° |
| 2026-05-07 03:53 | 37.77922 | -79.24909 | 36373 ft | 467 kts | 222° |
| 2026-05-07 03:53 | 37.73607 | -79.31049 | 36373 ft | 469 kts | 223° |
| 2026-05-07 03:54 | 37.69273 | -79.37204 | 36371 ft | 468 kts | 222° |
| 2026-05-07 03:54 | 37.64943 | -79.43345 | 36371 ft | 468 kts | 222° |
| 2026-05-07 03:55 | 37.60627 | -79.49449 | 36372 ft | 468 kts | 222° |
| 2026-05-07 03:55 | 37.56314 | -79.55541 | 36374 ft | 468 kts | 223° |
| 2026-05-07 03:56 | 37.51982 | -79.61648 | 36373 ft | 467 kts | 222° |
| 2026-05-07 03:56 | 37.47645 | -79.67750 | 36371 ft | 467 kts | 222° |
| 2026-05-07 03:57 | 37.43338 | -79.73798 | 36368 ft | 467 kts | 221° |
| 2026-05-07 03:57 | 37.39004 | -79.79870 | 36366 ft | 468 kts | 222° |
| 2026-05-07 03:58 | 37.34651 | -79.85960 | 36367 ft | 468 kts | 222° |
| 2026-05-07 03:58 | 37.30305 | -79.92030 | 36368 ft | 468 kts | 222° |
| 2026-05-07 03:59 | 37.25977 | -79.98061 | 36367 ft | 467 kts | 222° |
| 2026-05-07 03:59 | 37.21620 | -80.04121 | 36367 ft | 467 kts | 222° |